Time;durP1;ratioP1;P1;durP2;ratioP2;P2;SDS_P1;SDS_P2;PMS_P1;PMS_P2;Temp;Humidity;BMP_temperature;BMP_pressure;BME280_temperature;BME280_humidity;BME280_pressure;Samples;Min_cycle;Max_cycle;Signal;HPM_P1;HPM_P2
2023/02/14 00:01:10;;;;;;;14.40;5.77;;;5.00;99.90;;;;;;6124238;23;20407;-69
2023/02/14 00:03:38;;;;;;;6.37;4.47;;;5.00;99.90;;;;;;6124669;23;20894;-70
2023/02/14 00:06:06;;;;;;;9.87;6.17;;;4.80;99.90;;;;;;6123775;23;20903;-69
2023/02/14 00:08:33;;;;;;;6.93;4.10;;;4.90;99.90;;;;;;6122002;23;20401;-70
2023/02/14 00:11:01;;;;;;;15.67;6.57;;;4.80;99.90;;;;;;6124053;23;20455;-69
2023/02/14 00:13:29;;;;;;;9.93;5.17;;;4.70;99.90;;;;;;6072576;23;20481;-69
2023/02/14 00:15:55;;;;;;;7.43;4.80;;;4.80;99.90;;;;;;6123827;23;20428;-69
2023/02/14 00:19:01;;;;;;;6.50;3.87;;;4.70;99.90;;;;;;6124242;23;20427;-71
2023/02/14 00:21:09;;;;;;;9.27;4.17;;;4.80;99.90;;;;;;6123753;23;20940;-69
2023/02/14 00:23:36;;;;;;;11.67;5.40;;;4.70;99.90;;;;;;6123970;23;20411;-69
2023/02/14 00:26:03;;;;;;;9.00;5.10;;;4.70;99.90;;;;;;6122484;23;20426;-69
2023/02/14 00:28:32;;;;;;;5.83;3.60;;;4.70;99.90;;;;;;6124046;23;20446;-70
2023/02/14 00:31:01;;;;;;;7.30;4.37;;;4.70;99.90;;;;;;6124322;23;20447;-69
2023/02/14 00:33:28;;;;;;;7.30;5.07;;;4.70;99.90;;;;;;6123799;23;20395;-70
2023/02/14 00:35:55;;;;;;;11.03;5.17;;;4.80;99.90;;;;;;6123118;23;20424;-69
2023/02/14 00:38:25;;;;;;;7.27;4.13;;;4.80;99.90;;;;;;6123647;23;20530;-69
2023/02/14 00:40:52;;;;;;;12.43;5.47;;;4.70;99.90;;;;;;6122595;23;20412;-69
2023/02/14 00:43:19;;;;;;;22.40;6.30;;;4.70;99.90;;;;;;6123310;23;20476;-69
2023/02/14 00:45:47;;;;;;;7.63;5.03;;;4.60;99.90;;;;;;6123481;23;20568;-70
2023/02/14 00:48:14;;;;;;;6.50;4.90;;;4.50;99.90;;;;;;6122995;23;20417;-69
2023/02/14 00:50:41;;;;;;;4.50;3.70;;;4.60;99.90;;;;;;6122379;23;20457;-69
2023/02/14 00:53:09;;;;;;;8.97;7.67;;;4.50;99.90;;;;;;6123628;23;20385;-69
2023/02/14 00:55:36;;;;;;;5.13;4.67;;;4.60;99.90;;;;;;6124403;23;20411;-69
2023/02/14 00:58:03;;;;;;;5.37;4.87;;;4.60;99.90;;;;;;6124627;23;20451;-69
2023/02/14 01:00:30;;;;;;;5.47;4.77;;;4.70;99.90;;;;;;6124069;23;20568;-69
2023/02/14 01:02:59;;;;;;;4.53;4.10;;;4.60;99.90;;;;;;6124060;23;20411;-70
2023/02/14 01:05:25;;;;;;;7.03;4.30;;;4.50;99.90;;;;;;6122747;23;20790;-69
2023/02/14 01:07:52;;;;;;;5.87;4.63;;;4.40;99.90;;;;;;6123999;23;20492;-69
2023/02/14 01:10:19;;;;;;;5.03;4.43;;;4.40;99.90;;;;;;6123257;23;20384;-69
2023/02/14 01:12:46;;;;;;;11.13;5.80;;;4.50;99.90;;;;;;6123040;23;20523;-69
2023/02/14 01:15:13;;;;;;;7.20;4.77;;;4.50;99.90;;;;;;6123579;23;20415;-69
2023/02/14 01:17:45;;;;;;;8.90;4.33;;;4.40;99.90;;;;;;6096390;23;20933;-70
2023/02/14 01:20:14;;;;;;;7.50;4.23;;;4.50;99.90;;;;;;6124355;23;20946;-70
2023/02/14 01:22:41;;;;;;;6.50;5.27;;;4.40;99.90;;;;;;6125921;23;20410;-69
2023/02/14 01:25:08;;;;;;;7.43;3.67;;;4.40;99.90;;;;;;6125020;23;20463;-70
2023/02/14 01:27:35;;;;;;;5.87;4.00;;;4.50;99.90;;;;;;6124639;23;20842;-69
2023/02/14 01:30:03;;;;;;;9.73;5.07;;;4.40;99.90;;;;;;6074316;23;20414;-69
2023/02/14 01:32:30;;;;;;;7.77;4.20;;;4.40;99.90;;;;;;6125341;23;20481;-69
2023/02/14 01:34:57;;;;;;;7.80;4.93;;;4.30;99.90;;;;;;6125317;23;20463;-69
2023/02/14 01:37:26;;;;;;;6.90;4.73;;;4.40;99.90;;;;;;6125614;23;20817;-69
2023/02/14 01:39:53;;;;;;;7.97;5.10;;;4.30;99.90;;;;;;6125230;23;20760;-69
2023/02/14 01:42:20;;;;;;;9.20;5.90;;;4.20;99.90;;;;;;6128012;23;20548;-69
2023/02/14 01:45:00;;;;;;;9.93;5.27;;;4.30;99.90;;;;;;6125575;23;20410;-69
2023/02/14 01:47:29;;;;;;;9.30;5.37;;;4.20;99.90;;;;;;6125623;23;20845;-70
2023/02/14 01:50:00;;;;;;;15.17;6.47;;;4.20;99.90;;;;;;6125849;23;20403;-70
2023/02/14 01:52:33;;;;;;;9.40;5.77;;;4.20;99.90;;;;;;6075466;23;20483;-69
2023/02/14 01:55:03;;;;;;;11.97;7.23;;;4.20;99.90;;;;;;6125069;23;20405;-69
2023/02/14 01:57:35;;;;;;;8.40;4.10;;;4.10;99.90;;;;;;6124634;23;20453;-69
2023/02/14 02:02:45;;;;;;;9.07;4.90;;;4.20;99.90;;;;;;6124135;23;20413;-69
2023/02/14 02:05:14;;;;;;;6.90;4.40;;;4.10;99.90;;;;;;6124618;23;20404;-69
2023/02/14 02:07:42;;;;;;;10.13;4.90;;;4.10;99.90;;;;;;6124869;23;20498;-73
2023/02/14 02:10:10;;;;;;;11.27;4.47;;;4.10;99.90;;;;;;6125919;23;20411;-67
2023/02/14 02:12:38;;;;;;;9.43;4.50;;;4.10;99.90;;;;;;6125545;23;20479;-69
2023/02/14 02:15:06;;;;;;;7.50;5.87;;;4.00;99.90;;;;;;6125041;23;20414;-69
2023/02/14 02:17:49;;;;;;;4.87;4.37;;;4.00;99.90;;;;;;6124834;23;20407;-69
2023/02/14 02:20:48;;;;;;;6.97;4.40;;;4.00;99.90;;;;;;6124928;23;20541;-70
2023/02/14 02:23:52;;;;;;;30.67;5.80;;;4.00;99.90;;;;;;6126928;23;20370;-70
2023/02/14 02:26:59;;;;;;;7.20;5.87;;;4.00;99.90;;;;;;6125657;23;20425;-69
2023/02/14 02:30:04;;;;;;;9.13;5.80;;;3.90;99.90;;;;;;6056348;23;20407;-69
2023/02/14 02:33:23;;;;;;;8.80;6.27;;;3.90;99.90;;;;;;6065564;23;20897;-69
2023/02/14 02:36:13;;;;;;;8.23;4.97;;;3.90;99.90;;;;;;6125691;23;20409;-69
2023/02/14 02:38:55;;;;;;;7.63;4.80;;;3.80;99.90;;;;;;6125067;23;20862;-69
2023/02/14 02:41:32;;;;;;;7.90;4.00;;;3.70;99.90;;;;;;6125288;23;20436;-69
2023/02/14 02:44:10;;;;;;;11.80;6.63;;;3.70;99.90;;;;;;6125476;23;20652;-69
2023/02/14 02:46:49;;;;;;;8.87;4.87;;;3.60;99.90;;;;;;6125338;23;20441;-69
2023/02/14 02:55:08;;;;;;;9.83;4.90;;;3.60;99.90;;;;;;6125179;23;20366;-69
2023/02/14 02:57:38;;;;;;;27.40;5.77;;;3.60;99.90;;;;;;6124618;23;20431;-69
2023/02/14 03:00:07;;;;;;;4.73;4.30;;;3.60;99.90;;;;;;6125052;23;20424;-69
2023/02/14 03:05:21;;;;;;;11.87;6.13;;;3.60;99.90;;;;;;6125028;23;20376;-69
2023/02/14 03:07:50;;;;;;;10.13;5.30;;;3.70;99.90;;;;;;6125247;23;20416;-69
2023/02/14 03:10:19;;;;;;;8.73;4.70;;;3.80;99.90;;;;;;6124825;23;20474;-69
2023/02/14 03:13:18;;;;;;;13.33;4.70;;;3.70;99.90;;;;;;6126478;23;20502;-70
2023/02/14 03:15:53;;;;;;;7.50;4.87;;;3.70;99.90;;;;;;6125855;23;20745;-69
2023/02/14 03:18:37;;;;;;;8.97;6.70;;;3.70;99.90;;;;;;6123748;23;20380;-69
2023/02/14 03:21:12;;;;;;;8.87;4.93;;;3.70;99.90;;;;;;6124155;23;20450;-69
2023/02/14 03:23:45;;;;;;;7.50;3.50;;;3.80;99.90;;;;;;6124803;23;20845;-69
2023/02/14 03:26:17;;;;;;;16.73;5.83;;;3.80;99.90;;;;;;6124903;23;20428;-69
2023/02/14 03:28:52;;;;;;;5.77;5.27;;;3.80;99.90;;;;;;6124895;23;20400;-69
2023/02/14 03:31:24;;;;;;;6.30;4.63;;;3.70;99.90;;;;;;6075632;23;20415;-70
2023/02/14 03:34:00;;;;;;;7.70;5.20;;;3.70;99.90;;;;;;6074756;23;20442;-69
2023/02/14 03:36:31;;;;;;;10.87;5.40;;;3.60;99.90;;;;;;6124511;23;20391;-69
2023/02/14 03:39:06;;;;;;;15.50;6.47;;;3.60;99.90;;;;;;6124588;23;20369;-68
2023/02/14 03:41:38;;;;;;;7.97;5.40;;;3.70;99.90;;;;;;6124256;23;20944;-69
2023/02/14 03:44:10;;;;;;;8.37;4.20;;;3.70;99.90;;;;;;6123462;23;20736;-69
2023/02/14 03:46:43;;;;;;;5.83;4.57;;;3.70;99.90;;;;;;6125819;23;20431;-69
2023/02/14 03:49:14;;;;;;;9.73;6.07;;;3.70;99.90;;;;;;6124527;23;20875;-69
2023/02/14 03:51:44;;;;;;;13.53;6.80;;;3.70;99.90;;;;;;6123652;23;20412;-69
2023/02/14 03:54:13;;;;;;;7.97;6.90;;;3.60;99.90;;;;;;6123908;23;20382;-68
2023/02/14 03:56:46;;;;;;;7.90;5.00;;;3.50;99.90;;;;;;6124101;23;20389;-69
2023/02/14 03:59:18;;;;;;;11.80;5.80;;;3.40;99.90;;;;;;6123985;23;20365;-70
2023/02/14 04:01:50;;;;;;;8.77;4.70;;;3.30;99.90;;;;;;6096513;23;20572;-69
2023/02/14 04:04:21;;;;;;;8.93;5.33;;;3.30;99.90;;;;;;6123646;23;20413;-69
2023/02/14 04:06:48;;;;;;;9.33;4.70;;;3.40;99.90;;;;;;6124562;23;20423;-69
2023/02/14 04:09:16;;;;;;;5.10;4.03;;;3.50;99.90;;;;;;6124426;23;20386;-69
2023/02/14 04:11:45;;;;;;;4.70;4.00;;;3.50;99.90;;;;;;6122943;23;20990;-69
2023/02/14 04:14:12;;;;;;;7.73;6.33;;;3.40;99.90;;;;;;6124278;23;20408;-69
2023/02/14 04:19:23;;;;;;;6.87;5.33;;;3.50;99.90;;;;;;6124275;23;20432;-69
2023/02/14 04:21:51;;;;;;;12.23;5.87;;;3.50;99.90;;;;;;6124781;23;20405;-69
2023/02/14 04:24:20;;;;;;;14.53;5.87;;;3.40;99.90;;;;;;6122673;23;20424;-69
2023/02/14 04:27:09;;;;;;;9.67;4.87;;;3.20;99.90;;;;;;6124578;23;20500;-70
2023/02/14 04:29:37;;;;;;;8.40;4.40;;;3.20;99.90;;;;;;6124852;23;20366;-69
2023/02/14 04:32:05;;;;;;;9.73;5.17;;;3.30;99.90;;;;;;6124139;23;20805;-69
2023/02/14 04:34:33;;;;;;;7.37;4.00;;;3.10;99.90;;;;;;6123641;23;20377;-69
2023/02/14 04:37:00;;;;;;;10.30;5.60;;;3.10;99.90;;;;;;6123953;23;20389;-69
2023/02/14 04:39:28;;;;;;;7.07;6.10;;;2.90;99.90;;;;;;6124137;23;20792;-69
2023/02/14 04:41:55;;;;;;;8.20;4.60;;;2.90;99.90;;;;;;6123079;23;20408;-69
2023/02/14 04:44:22;;;;;;;9.67;5.37;;;3.00;99.90;;;;;;6124637;23;20467;-69
2023/02/14 04:46:49;;;;;;;14.17;5.83;;;3.00;99.90;;;;;;6124113;23;20478;-69
2023/02/14 04:49:17;;;;;;;15.03;5.97;;;3.00;99.90;;;;;;6124081;23;20452;-69
2023/02/14 04:51:44;;;;;;;13.00;4.10;;;2.90;99.90;;;;;;6123100;23;20495;-69
2023/02/14 04:54:11;;;;;;;6.60;4.57;;;2.80;99.90;;;;;;6123027;23;20438;-69
2023/02/14 04:56:39;;;;;;;10.33;3.90;;;2.70;99.90;;;;;;6124007;23;20748;-69
2023/02/14 04:59:06;;;;;;;10.07;5.43;;;2.70;99.90;;;;;;6123273;23;20870;-69
2023/02/14 05:01:35;;;;;;;7.07;4.93;;;2.70;99.90;;;;;;6123588;23;20483;-69
2023/02/14 05:04:04;;;;;;;8.37;5.90;;;2.80;99.90;;;;;;6123402;23;20778;-69
2023/02/14 05:06:32;;;;;;;8.50;4.60;;;2.80;99.90;;;;;;6123787;23;20910;-69
2023/02/14 05:08:59;;;;;;;8.60;4.17;;;2.70;99.90;;;;;;6124913;23;20752;-70
2023/02/14 05:11:27;;;;;;;13.27;6.40;;;2.70;99.90;;;;;;6124259;23;20433;-70
2023/02/14 05:13:55;;;;;;;5.93;4.67;;;2.70;99.90;;;;;;6124776;23;20745;-69
2023/02/14 05:16:23;;;;;;;8.83;6.10;;;2.70;99.90;;;;;;6124243;23;20420;-70
2023/02/14 05:18:50;;;;;;;8.03;5.87;;;2.70;99.90;;;;;;6124365;23;20416;-70
2023/02/14 05:21:17;;;;;;;6.30;4.70;;;2.70;99.90;;;;;;6123606;23;20476;-69
2023/02/14 05:23:44;;;;;;;13.17;6.60;;;2.60;99.90;;;;;;6124505;23;20407;-70
2023/02/14 05:26:11;;;;;;;7.57;5.03;;;2.60;99.90;;;;;;6123544;23;20399;-70
2023/02/14 05:28:39;;;;;;;6.30;5.10;;;2.50;99.90;;;;;;6124025;23;20413;-69
2023/02/14 05:31:08;;;;;;;12.33;6.80;;;2.50;99.90;;;;;;6123223;23;20422;-70
2023/02/14 05:33:35;;;;;;;9.50;5.10;;;2.40;99.90;;;;;;6123254;23;20416;-70
2023/02/14 05:36:02;;;;;;;6.23;5.43;;;2.40;99.90;;;;;;6123730;23;20453;-69
2023/02/14 05:38:30;;;;;;;12.40;6.07;;;2.40;99.90;;;;;;6123354;23;20709;-69
2023/02/14 05:40:57;;;;;;;9.50;5.70;;;2.60;99.90;;;;;;6123562;23;20503;-70
2023/02/14 05:43:27;;;;;;;13.00;6.70;;;2.60;99.90;;;;;;6123584;23;20427;-70
2023/02/14 05:45:54;;;;;;;13.03;6.10;;;2.60;99.90;;;;;;6123716;23;20420;-70
2023/02/14 05:48:22;;;;;;;5.77;5.13;;;2.60;99.90;;;;;;6123089;23;20445;-70
2023/02/14 05:50:51;;;;;;;12.43;6.10;;;2.60;99.90;;;;;;6126373;23;20826;-70
2023/02/14 05:53:18;;;;;;;9.93;5.43;;;2.60;99.90;;;;;;6123757;23;20471;-69
2023/02/14 05:55:45;;;;;;;5.27;4.77;;;2.60;99.90;;;;;;6124405;23;20481;-70
2023/02/14 05:58:12;;;;;;;9.43;4.63;;;2.60;99.90;;;;;;6124102;23;20421;-70
2023/02/14 06:00:39;;;;;;;12.37;7.33;;;2.60;99.90;;;;;;6123710;23;20450;-70
2023/02/14 06:03:06;;;;;;;15.87;5.80;;;2.40;99.90;;;;;;6123701;23;20560;-70
2023/02/14 06:05:35;;;;;;;14.73;8.07;;;2.50;99.90;;;;;;6123804;23;20493;-69
2023/02/14 06:08:02;;;;;;;13.50;7.00;;;2.40;99.90;;;;;;6125145;23;20415;-69
2023/02/14 06:10:29;;;;;;;10.50;6.00;;;2.40;99.90;;;;;;6126027;23;20432;-69
2023/02/14 06:12:56;;;;;;;8.73;5.73;;;2.40;99.90;;;;;;6126115;23;20502;-70
2023/02/14 06:15:23;;;;;;;9.70;4.90;;;2.40;99.90;;;;;;6126347;23;20424;-70
2023/02/14 06:17:54;;;;;;;19.00;8.03;;;2.40;99.90;;;;;;6126320;23;20410;-70
2023/02/14 06:20:23;;;;;;;11.47;6.13;;;2.50;99.90;;;;;;6125864;23;20525;-70
2023/02/14 06:22:52;;;;;;;11.97;6.00;;;2.60;99.90;;;;;;6126267;23;20473;-70
2023/02/14 06:25:20;;;;;;;10.83;5.73;;;2.60;99.90;;;;;;6125803;23;20423;-69
2023/02/14 06:27:47;;;;;;;11.60;6.30;;;2.60;99.90;;;;;;6125248;23;20708;-70
2023/02/14 06:30:15;;;;;;;9.33;5.67;;;2.50;99.90;;;;;;6125996;23;20485;-70
2023/02/14 06:32:42;;;;;;;12.37;5.50;;;2.50;99.90;;;;;;6126684;23;20434;-69
2023/02/14 06:35:09;;;;;;;12.60;6.30;;;2.40;99.90;;;;;;6125785;23;20831;-70
2023/02/14 06:37:37;;;;;;;16.53;4.27;;;2.40;99.90;;;;;;6126570;23;20730;-70
2023/02/14 06:40:07;;;;;;;6.73;4.83;;;2.40;99.90;;;;;;6126423;23;20497;-70
2023/02/14 06:42:35;;;;;;;11.90;6.47;;;2.40;99.90;;;;;;6125309;23;20405;-70
2023/02/14 06:45:02;;;;;;;12.13;5.67;;;2.40;99.90;;;;;;6125527;23;20484;-70
2023/02/14 06:47:29;;;;;;;9.60;5.93;;;2.30;99.90;;;;;;6125640;23;20441;-70
2023/02/14 06:49:58;;;;;;;13.30;7.60;;;2.40;99.90;;;;;;6125469;23;20818;-70
2023/02/14 06:52:25;;;;;;;14.27;5.90;;;2.40;99.90;;;;;;6125805;23;20436;-69
2023/02/14 06:54:52;;;;;;;12.90;5.57;;;2.40;99.90;;;;;;6125957;23;20445;-70
2023/02/14 06:57:20;;;;;;;11.17;6.50;;;2.40;99.90;;;;;;6126044;23;20419;-70
2023/02/14 06:59:47;;;;;;;8.60;4.93;;;2.30;99.90;;;;;;6129657;23;20416;-69
2023/02/14 07:02:14;;;;;;;8.57;5.77;;;2.40;99.90;;;;;;6128062;23;20454;-69
2023/02/14 07:04:44;;;;;;;5.97;4.97;;;2.50;99.90;;;;;;6124467;23;20453;-69
2023/02/14 07:07:11;;;;;;;15.23;5.90;;;2.50;99.90;;;;;;6125487;23;20512;-69
2023/02/14 07:09:38;;;;;;;11.17;5.80;;;2.50;99.90;;;;;;6125373;23;20705;-70
2023/02/14 07:12:05;;;;;;;12.10;6.23;;;2.60;99.90;;;;;;6126184;23;20735;-70
2023/02/14 07:14:34;;;;;;;5.80;4.80;;;2.70;99.90;;;;;;6125634;23;20415;-69
2023/02/14 07:17:04;;;;;;;6.03;5.53;;;2.70;99.90;;;;;;6123953;23;20477;-70
2023/02/14 07:19:31;;;;;;;17.90;7.53;;;2.70;99.90;;;;;;6124695;23;20938;-71
2023/02/14 07:21:58;;;;;;;10.60;6.50;;;2.90;99.90;;;;;;6125217;23;20450;-71
2023/02/14 07:24:26;;;;;;;9.87;7.77;;;3.10;99.90;;;;;;6125824;23;20490;-71
2023/02/14 07:26:54;;;;;;;10.90;6.87;;;3.10;99.90;;;;;;6125944;23;20488;-72
2023/02/14 07:29:21;;;;;;;10.10;6.93;;;3.30;99.90;;;;;;6125921;23;20724;-70
2023/02/14 07:31:49;;;;;;;12.80;7.67;;;3.50;99.90;;;;;;6124662;23;20433;-71
2023/02/14 07:34:19;;;;;;;10.97;5.50;;;3.70;99.90;;;;;;6125419;23;20793;-71
2023/02/14 07:36:45;;;;;;;9.63;6.63;;;3.90;99.90;;;;;;6125230;23;20741;-71
2023/02/14 07:39:12;;;;;;;11.50;5.57;;;4.20;99.90;;;;;;6124825;23;20923;-71
2023/02/14 07:41:39;;;;;;;16.57;7.53;;;4.40;99.90;;;;;;6125351;23;20436;-70
2023/02/14 07:44:07;;;;;;;7.17;5.93;;;4.50;99.90;;;;;;6125128;23;20493;-71
2023/02/14 07:46:34;;;;;;;16.67;6.83;;;4.60;99.90;;;;;;6125192;23;20742;-71
2023/02/14 07:49:03;;;;;;;6.60;5.23;;;4.50;99.90;;;;;;6124447;23;20447;-71
2023/02/14 07:51:30;;;;;;;17.77;7.77;;;4.50;99.90;;;;;;6125391;23;20430;-71
2023/02/14 07:53:57;;;;;;;8.30;4.60;;;4.40;99.90;;;;;;6124938;23;20498;-71
2023/02/14 07:56:24;;;;;;;7.10;4.40;;;4.30;99.90;;;;;;6124870;23;20765;-71
2023/02/14 07:58:51;;;;;;;11.77;7.07;;;4.40;99.90;;;;;;6124991;23;20414;-71
2023/02/14 08:01:18;;;;;;;7.80;6.30;;;4.60;99.90;;;;;;6125077;23;20418;-71
2023/02/14 08:03:48;;;;;;;22.70;7.50;;;4.60;99.90;;;;;;6124910;23;20386;-71
2023/02/14 08:06:17;;;;;;;10.60;7.20;;;4.80;99.90;;;;;;6123703;23;20919;-71
2023/02/14 08:08:45;;;;;;;14.27;6.90;;;4.90;99.90;;;;;;6124799;23;20393;-71
2023/02/14 08:12:57;;;;;;;13.87;6.77;;;5.00;99.90;;;;;;6124850;23;20423;-71
2023/02/14 08:13:59;;;;;;;16.10;7.10;;;5.00;99.90;;;;;;6082213;23;20866;-70
2023/02/14 08:16:26;;;;;;;11.80;6.43;;;5.20;99.90;;;;;;6123464;23;20439;-71
2023/02/14 08:18:55;;;;;;;12.23;6.90;;;5.40;99.90;;;;;;6125404;23;20410;-72
2023/02/14 08:21:24;;;;;;;11.13;7.10;;;5.40;99.90;;;;;;6125107;23;20470;-71
2023/02/14 08:23:51;;;;;;;31.60;7.47;;;5.60;99.90;;;;;;6124171;23;20444;-71
2023/02/14 08:26:18;;;;;;;9.90;7.00;;;5.60;99.90;;;;;;6124733;23;20473;-71
2023/02/14 08:28:45;;;;;;;14.50;9.17;;;5.80;99.90;;;;;;6124642;23;20784;-70
2023/02/14 08:31:12;;;;;;;13.23;7.70;;;6.50;99.90;;;;;;6124720;23;20979;-71
2023/02/14 08:33:39;;;;;;;13.70;8.87;;;7.00;99.90;;;;;;6125095;23;20411;-70
2023/02/14 08:36:06;;;;;;;27.20;9.90;;;7.70;99.90;;;;;;6125676;23;20385;-71
2023/02/14 08:38:34;;;;;;;22.93;9.00;;;8.30;99.90;;;;;;6125068;23;20486;-71
2023/02/14 08:41:01;;;;;;;12.60;10.13;;;8.80;99.90;;;;;;6124165;23;20517;-71
2023/02/14 08:43:28;;;;;;;19.23;9.03;;;9.70;99.90;;;;;;6124626;23;20498;-71
2023/02/14 08:45:55;;;;;;;18.00;10.10;;;10.60;99.90;;;;;;6124860;23;20411;-71
2023/02/14 08:48:24;;;;;;;16.23;9.23;;;11.30;99.90;;;;;;6124771;23;20497;-70
2023/02/14 08:50:50;;;;;;;9.60;7.07;;;11.30;99.90;;;;;;6124007;23;20455;-70
2023/02/14 08:53:17;;;;;;;18.07;8.17;;;11.20;99.90;;;;;;6123953;23;20488;-71
2023/02/14 08:55:46;;;;;;;16.33;7.90;;;11.20;99.90;;;;;;6124249;23;20502;-71
2023/02/14 08:58:13;;;;;;;14.40;8.23;;;11.10;99.90;;;;;;6124769;23;20973;-71
2023/02/14 09:00:40;;;;;;;17.57;7.30;;;11.10;99.90;;;;;;6124882;23;20386;-73
2023/02/14 09:03:07;;;;;;;24.70;8.70;;;11.30;99.90;;;;;;6126200;23;20498;-71
2023/02/14 09:05:34;;;;;;;10.90;7.50;;;11.50;99.90;;;;;;6125017;23;20415;-71
2023/02/14 09:08:02;;;;;;;11.33;6.83;;;11.80;99.90;;;;;;6124737;23;20507;-71
2023/02/14 09:10:30;;;;;;;11.17;8.13;;;12.10;99.90;;;;;;6124112;23;21064;-70
2023/02/14 09:12:58;;;;;;;11.80;8.30;;;12.90;99.90;;;;;;6124610;23;20381;-70
2023/02/14 09:15:25;;;;;;;16.07;8.73;;;14.10;99.90;;;;;;6124813;23;20502;-71
2023/02/14 09:17:52;;;;;;;11.20;6.80;;;14.90;99.90;;;;;;6124386;23;20490;-69
2023/02/14 09:20:19;;;;;;;13.10;6.37;;;16.00;99.90;;;;;;6097290;23;20403;-72
2023/02/14 09:22:46;;;;;;;11.57;6.03;;;16.70;99.90;;;;;;6123887;23;20447;-70
2023/02/14 09:25:13;;;;;;;9.83;6.50;;;17.10;99.90;;;;;;6123880;23;20955;-70
2023/02/14 09:27:40;;;;;;;18.53;5.70;;;17.00;99.90;;;;;;6123705;23;20768;-69
2023/02/14 09:30:11;;;;;;;7.43;5.40;;;16.40;99.90;;;;;;6124110;23;20899;-70
2023/02/14 09:32:38;;;;;;;8.50;5.80;;;15.90;99.90;;;;;;6123936;23;20458;-69
2023/02/14 09:37:50;;;;;;;12.07;6.30;;;14.80;99.90;;;;;;6124375;23;20408;-70
2023/02/14 09:40:19;;;;;;;9.50;6.20;;;15.20;99.90;;;;;;6123913;23;20481;-70
2023/02/14 09:42:52;;;;;;;9.07;6.03;;;16.10;99.90;;;;;;6126257;23;20557;-70
2023/02/14 09:45:24;;;;;;;6.30;5.70;;;17.20;99.90;;;;;;6126560;23;20689;-70
2023/02/14 09:47:56;;;;;;;13.97;6.93;;;18.10;99.90;;;;;;6125705;23;20402;-70
2023/02/14 09:50:27;;;;;;;11.90;7.30;;;19.00;99.90;;;;;;6124792;23;20433;-70
2023/02/14 09:53:00;;;;;;;10.43;7.07;;;19.10;99.90;;;;;;6126396;23;20387;-70
2023/02/14 09:55:35;;;;;;;9.33;6.57;;;20.10;99.80;;;;;;6126079;23;20466;-70
2023/02/14 09:58:13;;;;;;;9.60;6.40;;;20.40;96.30;;;;;;6125344;23;20529;-70
2023/02/14 10:00:45;;;;;;;18.13;7.67;;;20.70;95.60;;;;;;6125941;23;20395;-70
2023/02/14 10:03:45;;;;;;;7.90;7.10;;;21.10;94.00;;;;;;6126325;23;20458;-70
2023/02/14 10:06:26;;;;;;;9.10;6.80;;;21.10;94.00;;;;;;6125857;23;20438;-71
2023/02/14 10:09:02;;;;;;;11.47;6.90;;;21.60;91.60;;;;;;6125455;23;20470;-70
2023/02/14 10:11:29;;;;;;;8.10;5.83;;;21.20;91.40;;;;;;6126856;23;20946;-71
2023/02/14 10:14:01;;;;;;;11.33;6.80;;;21.20;92.70;;;;;;6126031;23;20506;-70
2023/02/14 10:16:33;;;;;;;11.90;6.63;;;21.80;90.90;;;;;;6125800;23;20391;-70
2023/02/14 10:19:03;;;;;;;9.90;6.13;;;21.90;88.90;;;;;;6125553;23;20479;-70
2023/02/14 10:21:37;;;;;;;10.00;7.23;;;22.00;88.50;;;;;;6125392;23;20530;-70
2023/02/14 10:24:14;;;;;;;8.37;6.70;;;22.10;88.20;;;;;;6125388;23;20399;-71
2023/02/14 10:26:41;;;;;;;11.07;6.33;;;22.70;88.40;;;;;;6125449;23;20477;-71
2023/02/14 10:29:14;;;;;;;9.43;8.40;;;22.90;86.40;;;;;;6126121;23;20418;-70
2023/02/14 10:31:54;;;;;;;9.80;6.27;;;23.20;83.70;;;;;;6123556;23;20433;-70
2023/02/14 10:34:26;;;;;;;13.10;7.67;;;23.40;82.50;;;;;;6125761;23;20413;-70
2023/02/14 10:37:18;;;;;;;9.57;7.70;;;23.10;81.60;;;;;;6125975;23;20387;-70
2023/02/14 10:40:26;;;;;;;9.73;7.20;;;22.80;84.10;;;;;;6125919;23;20394;-70
2023/02/14 10:43:00;;;;;;;8.37;6.17;;;24.00;81.20;;;;;;6125465;23;20848;-70
2023/02/14 10:45:37;;;;;;;12.90;7.20;;;24.30;76.30;;;;;;6124934;23;20427;-70
2023/02/14 10:48:15;;;;;;;9.90;6.80;;;24.00;77.20;;;;;;6125771;23;20716;-71
2023/02/14 10:50:52;;;;;;;12.40;7.73;;;24.10;76.50;;;;;;6125584;23;20391;-71
2023/02/14 10:53:27;;;;;;;8.43;5.90;;;24.10;75.10;;;;;;6124839;23;20388;-71
2023/02/14 10:56:00;;;;;;;10.70;6.60;;;23.90;75.70;;;;;;6125222;23;20422;-71
2023/02/14 10:58:30;;;;;;;8.77;6.87;;;23.80;75.20;;;;;;6125743;23;20725;-70
2023/02/14 11:01:02;;;;;;;10.80;7.20;;;23.90;74.80;;;;;;6125254;23;20427;-70
2023/02/14 11:03:32;;;;;;;16.37;7.97;;;24.10;74.30;;;;;;6125947;23;21034;-70
2023/02/14 11:06:00;;;;;;;13.33;8.37;;;24.50;72.90;;;;;;6125634;23;20418;-71
2023/02/14 11:08:31;;;;;;;14.27;8.70;;;24.80;74.20;;;;;;6125762;23;20726;-71
2023/02/14 11:11:04;;;;;;;11.53;8.33;;;25.40;72.20;;;;;;6124826;23;20461;-70
2023/02/14 11:13:34;;;;;;;9.37;6.40;;;25.50;68.70;;;;;;6125467;23;20773;-71
2023/02/14 11:16:04;;;;;;;10.80;7.20;;;25.30;68.20;;;;;;6125436;23;20521;-70
2023/02/14 11:18:34;;;;;;;12.97;7.13;;;25.20;68.20;;;;;;6124653;23;20411;-70
2023/02/14 11:21:07;;;;;;;16.43;8.10;;;25.00;68.40;;;;;;6125261;23;20434;-69
2023/02/14 11:23:37;;;;;;;9.90;6.00;;;25.10;68.10;;;;;;6124558;23;20446;-70
2023/02/14 11:26:10;;;;;;;11.13;7.10;;;25.20;67.60;;;;;;6124751;23;20510;-70
2023/02/14 11:28:44;;;;;;;12.40;7.77;;;25.40;67.90;;;;;;6124952;23;20781;-70
2023/02/14 11:31:13;;;;;;;8.60;6.77;;;26.10;67.50;;;;;;6125206;23;20438;-70
2023/02/14 11:33:44;;;;;;;12.00;7.10;;;26.40;64.50;;;;;;6125209;23;20892;-70
2023/02/14 11:36:13;;;;;;;9.10;6.70;;;25.90;64.70;;;;;;6125435;23;20426;-70
2023/02/14 11:38:41;;;;;;;10.50;6.53;;;26.30;65.30;;;;;;6125159;23;20438;-70
2023/02/14 11:41:11;;;;;;;14.10;10.33;;;26.70;62.90;;;;;;6125025;23;20518;-71
2023/02/14 11:43:39;;;;;;;18.70;7.00;;;26.50;63.50;;;;;;6124417;23;20958;-71
2023/02/14 11:46:15;;;;;;;14.07;8.00;;;27.10;61.00;;;;;;6125090;23;20407;-70
2023/02/14 11:49:02;;;;;;;12.03;7.90;;;27.10;61.00;;;;;;6124864;23;20479;-71
2023/02/14 11:51:33;;;;;;;11.00;6.90;;;27.10;60.50;;;;;;6124132;23;20459;-70
2023/02/14 11:54:04;;;;;;;13.77;8.10;;;27.20;61.40;;;;;;6125924;23;20388;-70
2023/02/14 11:57:02;;;;;;;16.40;8.80;;;27.00;60.00;;;;;;6125236;23;20391;-70
2023/02/14 11:59:32;;;;;;;10.30;7.67;;;27.10;59.90;;;;;;6043876;23;20411;-70
2023/02/14 12:02:02;;;;;;;10.10;7.57;;;27.40;59.80;;;;;;6124858;23;20447;-71
2023/02/14 12:04:39;;;;;;;15.03;9.33;;;27.80;58.50;;;;;;6124428;23;20495;-70
2023/02/14 12:07:17;;;;;;;13.10;7.37;;;27.40;58.70;;;;;;6125470;23;20399;-70
2023/02/14 12:09:45;;;;;;;11.80;8.00;;;27.20;58.40;;;;;;6125313;23;20473;-72
2023/02/14 12:12:18;;;;;;;12.03;8.60;;;27.30;58.50;;;;;;6124928;23;20505;-70
2023/02/14 12:14:45;;;;;;;10.67;7.50;;;27.20;57.60;;;;;;6125162;23;20482;-71
2023/02/14 12:17:25;;;;;;;13.40;7.40;;;26.80;57.40;;;;;;6125515;23;20419;-70
2023/02/14 12:20:00;;;;;;;9.33;7.47;;;25.90;58.70;;;;;;6125806;23;20391;-71
2023/02/14 12:22:33;;;;;;;14.10;8.07;;;25.80;59.70;;;;;;6124435;23;20482;-70
2023/02/14 12:25:06;;;;;;;14.07;7.40;;;25.50;59.80;;;;;;6124702;23;20387;-71
2023/02/14 12:27:43;;;;;;;9.90;7.30;;;25.80;59.80;;;;;;6124755;23;20814;-70
2023/02/14 12:30:15;;;;;;;12.07;7.83;;;26.30;58.70;;;;;;6124478;23;20391;-70
2023/02/14 12:32:49;;;;;;;13.23;7.30;;;26.40;58.70;;;;;;6124388;23;20514;-72
2023/02/14 12:35:35;;;;;;;13.50;8.53;;;26.80;57.70;;;;;;6122981;23;20667;-70
2023/02/14 12:38:10;;;;;;;9.90;7.33;;;26.90;58.40;;;;;;6124902;23;20395;-70
2023/02/14 12:40:46;;;;;;;10.07;6.87;;;27.10;58.20;;;;;;6124311;23;20395;-70
2023/02/14 12:43:34;;;;;;;11.83;7.50;;;26.50;57.80;;;;;;6123736;23;20493;-70
2023/02/14 12:46:34;;;;;;;8.80;6.63;;;26.50;58.80;;;;;;6124098;23;20438;-70
2023/02/14 12:49:21;;;;;;;11.20;8.40;;;27.00;58.30;;;;;;6124529;23;20392;-70
2023/02/14 12:51:58;;;;;;;10.70;8.10;;;27.60;57.80;;;;;;6123731;23;20948;-71
2023/02/14 12:54:42;;;;;;;11.40;7.07;;;27.30;57.80;;;;;;6124490;23;20392;-70
2023/02/14 12:57:22;;;;;;;10.93;8.17;;;27.50;56.60;;;;;;6124099;23;20788;-71
2023/02/14 12:59:55;;;;;;;9.50;7.10;;;27.40;56.60;;;;;;6124400;23;20441;-71
2023/02/14 13:02:46;;;;;;;10.07;7.87;;;27.70;56.70;;;;;;6124934;23;20455;-71
2023/02/14 13:05:22;;;;;;;15.00;11.10;;;27.30;56.70;;;;;;6124545;23;20407;-71
2023/02/14 13:08:21;;;;;;;10.23;7.10;;;27.80;56.30;;;;;;6124071;23;20786;-70
2023/02/14 13:10:57;;;;;;;12.13;7.47;;;28.00;55.60;;;;;;6122134;23;20809;-70
2023/02/14 13:13:33;;;;;;;16.53;8.27;;;27.70;55.70;;;;;;6124645;23;20461;-70
2023/02/14 13:16:11;;;;;;;13.57;7.17;;;27.90;55.70;;;;;;6124753;23;20395;-70
2023/02/14 13:18:49;;;;;;;9.87;7.50;;;28.10;55.30;;;;;;6126812;23;20418;-71
2023/02/14 13:21:21;;;;;;;10.93;7.30;;;28.00;56.00;;;;;;6126605;23;20422;-70
2023/02/14 13:23:54;;;;;;;12.10;8.07;;;28.20;55.60;;;;;;6126548;23;20455;-71
2023/02/14 13:26:25;;;;;;;14.40;7.93;;;28.60;54.40;;;;;;6126427;23;20427;-70